createdAt,value
2019-03-28T00:00:38.029Z,8.40
2019-03-28T00:03:07.444Z,8.30
2019-03-28T00:05:36.869Z,8.30
2019-03-28T00:08:06.191Z,8.40
2019-03-28T00:10:35.528Z,8.40
2019-03-28T00:13:05.154Z,8.40
2019-03-28T00:15:34.712Z,8.40
2019-03-28T00:18:04.081Z,8.50
2019-03-28T00:20:33.427Z,8.50
2019-03-28T00:23:25.020Z,8.50
2019-03-28T00:25:54.419Z,8.50
2019-03-28T00:28:23.748Z,8.40
2019-03-28T00:30:53.073Z,8.40
2019-03-28T00:33:22.479Z,8.40
2019-03-28T00:35:51.947Z,8.40
2019-03-28T00:38:21.251Z,8.40
2019-03-28T00:40:50.624Z,8.40
2019-03-28T00:43:19.941Z,8.40
2019-03-28T00:45:49.307Z,8.30
2019-03-28T00:48:18.584Z,8.30
2019-03-28T00:50:48.025Z,8.30
2019-03-28T00:53:17.335Z,8.30
2019-03-28T00:55:46.684Z,8.30
2019-03-28T00:58:15.996Z,8.30
2019-03-28T01:00:45.425Z,8.20
2019-03-28T01:03:14.733Z,8.20
2019-03-28T01:05:44.031Z,8.20
2019-03-28T01:08:13.476Z,8.10
2019-03-28T01:10:43.077Z,8.10
2019-03-28T01:13:14.498Z,8.20
2019-03-28T01:15:43.953Z,8.20
2019-03-28T01:18:13.250Z,8.10
2019-03-28T01:20:42.618Z,8.20
2019-03-28T01:23:11.945Z,8.10
2019-03-28T01:25:41.281Z,8.10
2019-03-28T01:28:10.557Z,8.00
2019-03-28T01:30:39.889Z,8.00
2019-03-28T01:33:09.232Z,8.10
2019-03-28T01:35:38.588Z,8.10
2019-03-28T01:38:07.957Z,8.10
2019-03-28T01:40:37.309Z,8.10
2019-03-28T01:43:06.657Z,8.10
2019-03-28T01:45:35.954Z,8.20
2019-03-28T01:48:05.397Z,8.20
2019-03-28T01:50:34.790Z,8.20
2019-03-28T01:53:04.085Z,8.20
2019-03-28T01:55:33.417Z,8.10
2019-03-28T01:58:02.821Z,8.20
2019-03-28T02:00:32.216Z,8.20
2019-03-28T02:03:01.542Z,8.10
2019-03-28T02:05:30.938Z,8.20
2019-03-28T02:08:02.636Z,8.20
2019-03-28T02:10:31.404Z,8.20
2019-03-28T02:13:00.813Z,8.20
2019-03-28T02:15:30.246Z,8.30
2019-03-28T02:17:59.581Z,8.30
2019-03-28T02:20:28.853Z,8.30
2019-03-28T02:22:58.239Z,8.30
2019-03-28T02:25:27.565Z,8.30
2019-03-28T02:27:56.895Z,8.20
2019-03-28T02:30:32.503Z,8.20
2019-03-28T02:33:02.189Z,8.20
2019-03-28T02:35:31.533Z,8.20
2019-03-28T02:38:01.033Z,8.20
2019-03-28T02:40:30.339Z,8.20
2019-03-28T02:42:59.820Z,8.30
2019-03-28T02:45:29.922Z,8.30
2019-03-28T02:48:23.476Z,8.30
2019-03-28T02:50:52.834Z,8.30
2019-03-28T02:53:22.249Z,8.30
2019-03-28T02:55:51.565Z,8.20
2019-03-28T02:58:20.954Z,8.20
2019-03-28T03:00:50.498Z,8.20
2019-03-28T03:03:19.798Z,8.20
2019-03-28T03:05:49.094Z,8.10
2019-03-28T03:08:18.396Z,8.20
2019-03-28T03:10:47.729Z,8.20
2019-03-28T03:13:17.028Z,8.30
2019-03-28T03:15:46.412Z,8.30
2019-03-28T03:18:15.762Z,8.40
2019-03-28T03:20:45.145Z,8.40
2019-03-28T03:23:14.465Z,8.40
2019-03-28T03:25:43.776Z,8.40
2019-03-28T03:28:13.097Z,8.40
2019-03-28T03:30:42.475Z,8.30
2019-03-28T03:33:11.798Z,8.30
2019-03-28T03:35:41.133Z,8.40
2019-03-28T03:38:10.466Z,8.40
2019-03-28T03:40:40.028Z,8.30
2019-03-28T03:43:09.344Z,8.40
2019-03-28T03:45:38.708Z,8.40
2019-03-28T03:48:08.057Z,8.40
2019-03-28T03:50:37.389Z,8.40
2019-03-28T03:53:07.517Z,8.30
2019-03-28T03:55:36.945Z,8.30
2019-03-28T03:58:15.697Z,8.40
2019-03-28T04:00:37.710Z,8.40
2019-03-28T04:03:07.101Z,8.50
2019-03-28T04:05:36.419Z,8.40
2019-03-28T04:08:05.826Z,8.40
2019-03-28T04:10:35.780Z,8.40
2019-03-28T04:13:05.179Z,8.40
2019-03-28T04:15:34.615Z,8.30
2019-03-28T04:18:04.014Z,8.40
2019-03-28T04:20:33.351Z,8.40
2019-03-28T04:23:03.842Z,8.40
2019-03-28T04:25:33.479Z,8.40
2019-03-28T04:28:02.991Z,8.40
2019-03-28T04:30:32.356Z,8.40
2019-03-28T04:33:01.739Z,8.40
2019-03-28T04:35:31.194Z,8.30
2019-03-28T04:38:00.672Z,8.30
2019-03-28T04:40:30.064Z,8.30
2019-03-28T04:42:59.507Z,8.30
2019-03-28T04:45:28.876Z,8.30
2019-03-28T04:47:58.429Z,8.30
2019-03-28T04:50:27.742Z,8.40
2019-03-28T04:52:57.196Z,8.40
2019-03-28T04:55:26.589Z,8.40
2019-03-28T04:57:56.131Z,8.50
2019-03-28T05:00:25.577Z,8.50
2019-03-28T05:02:54.925Z,8.50
2019-03-28T05:05:24.313Z,8.50
2019-03-28T05:07:53.680Z,8.50
2019-03-28T05:10:23.001Z,8.50
2019-03-28T05:12:52.330Z,8.50
2019-03-28T05:15:21.706Z,8.50
2019-03-28T05:17:51.008Z,8.50
2019-03-28T05:20:20.633Z,8.40
2019-03-28T05:22:53.181Z,8.50
2019-03-28T05:25:30.371Z,8.40
2019-03-28T05:28:04.874Z,8.50
2019-03-28T05:30:34.532Z,8.50
2019-03-28T05:33:08.502Z,8.60
2019-03-28T05:38:26.499Z,8.40
2019-03-28T05:40:55.973Z,8.40
2019-03-28T05:43:25.626Z,8.40
2019-03-28T05:45:56.315Z,8.40
2019-03-28T05:48:26.118Z,8.40
2019-03-28T05:50:55.673Z,8.40
2019-03-28T05:53:24.985Z,8.50
2019-03-28T05:55:54.561Z,8.50
2019-03-28T05:58:24.017Z,8.50
2019-03-28T06:00:53.612Z,8.40
2019-03-28T06:03:22.986Z,8.50
2019-03-28T06:05:52.455Z,8.50
2019-03-28T06:08:21.830Z,8.50
2019-03-28T06:10:51.248Z,8.60
2019-03-28T06:13:20.810Z,8.60
2019-03-28T06:15:50.240Z,8.60
2019-03-28T06:18:20.307Z,8.60
2019-03-28T06:20:49.730Z,8.70
2019-03-28T06:23:19.049Z,8.70
2019-03-28T06:25:49.494Z,8.70
2019-03-28T06:28:19.010Z,8.60
2019-03-28T06:30:48.432Z,8.60
2019-03-28T06:33:17.792Z,8.60
2019-03-28T06:35:47.305Z,8.60
2019-03-28T06:38:17.615Z,8.60
2019-03-28T06:40:46.989Z,8.60
2019-03-28T06:43:16.369Z,8.50
2019-03-28T06:45:45.720Z,8.50
2019-03-28T06:48:15.077Z,8.50
2019-03-28T06:50:44.369Z,8.60
2019-03-28T06:53:13.726Z,8.60
2019-03-28T06:55:43.149Z,8.60
2019-03-28T06:58:12.562Z,8.60
2019-03-28T07:04:11.079Z,8.60
2019-03-28T07:06:40.644Z,8.70
2019-03-28T07:09:10.411Z,8.70
2019-03-28T07:11:40.280Z,8.70
2019-03-28T07:14:09.734Z,8.80
2019-03-28T07:16:39.037Z,8.80
2019-03-28T07:19:08.476Z,8.90
2019-03-28T07:21:37.933Z,8.90
2019-03-28T07:24:07.649Z,8.90
2019-03-28T07:26:37.082Z,8.90
2019-03-28T07:29:06.462Z,9.00
2019-03-28T07:31:35.988Z,9.00
2019-03-28T07:34:05.409Z,9.10
2019-03-28T07:36:34.828Z,9.20
2019-03-28T07:39:05.873Z,9.20
2019-03-28T07:41:35.372Z,9.20
2019-03-28T07:44:04.908Z,9.20
2019-03-28T07:46:34.378Z,9.20
2019-03-28T07:49:03.782Z,9.10
2019-03-28T07:51:33.711Z,9.10
2019-03-28T07:54:03.206Z,9.20
2019-03-28T07:56:32.651Z,9.30
2019-03-28T07:59:02.033Z,9.40
2019-03-28T08:01:31.437Z,9.50
2019-03-28T08:04:00.784Z,9.50
2019-03-28T08:06:30.149Z,9.50
2019-03-28T08:08:59.590Z,9.60
2019-03-28T08:11:29.038Z,9.50
2019-03-28T08:13:58.617Z,9.50
2019-03-28T08:16:28.934Z,9.60
2019-03-28T08:18:58.533Z,9.60
2019-03-28T08:21:27.993Z,9.60
2019-03-28T08:23:57.788Z,9.50
2019-03-28T08:26:30.093Z,9.40
2019-03-28T08:28:58.384Z,9.40
2019-03-28T08:31:27.894Z,9.40
2019-03-28T08:33:57.305Z,9.40
2019-03-28T08:36:28.450Z,9.40
2019-03-28T08:38:57.874Z,9.40
2019-03-28T08:41:27.237Z,9.50
2019-03-28T08:43:56.609Z,9.40
2019-03-28T08:46:26.008Z,9.50
2019-03-28T08:48:55.905Z,9.50
2019-03-28T08:51:27.345Z,9.50
2019-03-28T08:53:56.813Z,9.60
2019-03-28T08:56:27.303Z,9.60
2019-03-28T08:58:56.864Z,9.60
2019-03-28T09:01:27.285Z,9.60
2019-03-28T09:04:33.003Z,9.60
2019-03-28T09:10:59.708Z,9.80
2019-03-28T09:13:28.750Z,10.00
2019-03-28T09:16:48.723Z,10.10
2019-03-28T09:19:16.909Z,10.20
2019-03-28T09:26:54.992Z,10.40
2019-03-28T09:29:24.563Z,10.70
2019-03-28T09:32:00.074Z,11.00
2019-03-28T09:34:29.604Z,11.20
2019-03-28T09:36:59.195Z,11.30
2019-03-28T09:39:30.056Z,11.30
2019-03-28T09:42:02.593Z,11.30
2019-03-28T09:48:01.349Z,11.60
2019-03-28T09:50:31.014Z,11.40
2019-03-28T09:53:03.910Z,11.30
2019-03-28T09:55:33.650Z,11.20
2019-03-28T09:58:03.247Z,11.20
2019-03-28T10:00:34.680Z,11.10
2019-03-28T10:03:10.260Z,11.10
2019-03-28T10:05:41.591Z,11.20
2019-03-28T10:08:16.991Z,11.20
2019-03-28T10:11:09.549Z,11.30
2019-03-28T10:17:36.040Z,11.40
2019-03-28T10:24:02.935Z,11.70
2019-03-28T10:26:42.451Z,11.90
2019-03-28T10:29:11.989Z,11.90
2019-03-28T10:31:41.577Z,11.90
2019-03-28T10:34:11.133Z,11.90
2019-03-28T10:37:03.744Z,12.00
2019-03-28T10:39:33.648Z,12.20
2019-03-28T10:42:03.293Z,12.50
2019-03-28T10:44:33.462Z,12.70
2019-03-28T10:47:04.867Z,12.70
2019-03-28T10:49:41.439Z,12.90
2019-03-28T10:52:13.708Z,12.90
2019-03-28T10:54:46.933Z,12.70
2019-03-28T10:57:29.570Z,12.70
2019-03-28T10:59:52.114Z,12.70
2019-03-28T11:02:36.562Z,12.90
2019-03-28T11:05:27.477Z,13.10
2019-03-28T11:07:57.040Z,12.90
2019-03-28T11:10:30.573Z,12.90
2019-03-28T11:13:05.246Z,12.70
2019-03-28T11:16:04.405Z,12.70
2019-03-28T11:18:34.137Z,12.60
2019-03-28T11:21:09.513Z,12.50
2019-03-28T11:23:39.397Z,12.50
2019-03-28T11:26:31.496Z,12.40
2019-03-28T11:29:03.251Z,12.40
2019-03-28T11:31:45.540Z,12.30
2019-03-28T11:34:10.805Z,12.20
2019-03-28T11:36:40.228Z,12.20
2019-03-28T11:39:10.698Z,12.10
2019-03-28T11:41:52.826Z,12.10
2019-03-28T11:44:28.285Z,12.20
2019-03-28T11:46:58.175Z,12.00
2019-03-28T11:49:27.742Z,12.10
2019-03-28T11:52:02.570Z,12.00
2019-03-28T11:54:32.064Z,12.00
2019-03-28T11:57:01.507Z,11.90
2019-03-28T11:59:38.771Z,11.80
2019-03-28T12:02:19.640Z,11.90
2019-03-28T12:04:39.348Z,11.90
2019-03-28T12:07:15.629Z,11.80
2019-03-28T12:09:45.032Z,11.80
2019-03-28T12:12:14.437Z,11.70
2019-03-28T12:14:43.889Z,11.80
2019-03-28T12:17:13.227Z,11.80
2019-03-28T12:19:42.840Z,11.60
2019-03-28T12:22:12.409Z,11.70
2019-03-28T12:24:43.502Z,11.80
2019-03-28T12:27:12.973Z,12.00
2019-03-28T12:29:43.060Z,12.20
2019-03-28T12:32:19.897Z,12.40
2019-03-28T12:34:49.282Z,12.50
2019-03-28T12:37:18.761Z,12.60
2019-03-28T12:40:00.053Z,12.60
2019-03-28T12:42:29.744Z,12.60
2019-03-28T12:44:59.263Z,12.60
2019-03-28T12:47:41.589Z,12.60
2019-03-28T12:49:59.957Z,12.50
2019-03-28T12:52:29.960Z,12.40
2019-03-28T12:54:59.537Z,12.40
2019-03-28T12:57:28.937Z,12.20
2019-03-28T12:59:58.268Z,12.10
2019-03-28T13:02:31.825Z,12.10
2019-03-28T13:04:58.783Z,12.10
2019-03-28T13:07:28.168Z,11.90
2019-03-28T13:09:57.592Z,11.80
2019-03-28T13:12:27.063Z,11.60
2019-03-28T13:14:56.631Z,11.60
2019-03-28T13:17:25.972Z,11.50
2019-03-28T13:19:55.749Z,11.60
2019-03-28T13:22:25.145Z,11.70
2019-03-28T13:24:54.591Z,11.90
2019-03-28T13:27:34.350Z,12.00
2019-03-28T13:30:02.580Z,12.30
2019-03-28T13:32:41.598Z,12.30
2019-03-28T13:35:08.457Z,12.30
2019-03-28T13:37:38.100Z,12.40
2019-03-28T13:40:07.706Z,12.50
2019-03-28T13:42:41.328Z,12.50
2019-03-28T13:45:11.784Z,12.50
2019-03-28T13:47:41.357Z,12.50
2019-03-28T13:50:11.829Z,12.60
2019-03-28T13:52:41.289Z,12.50
2019-03-28T13:55:11.093Z,12.50
2019-03-28T13:57:43.225Z,12.50
2019-03-28T14:00:12.708Z,12.60
2019-03-28T14:02:55.661Z,12.70
2019-03-28T14:05:13.615Z,12.80
2019-03-28T14:07:43.145Z,12.70
2019-03-28T14:10:12.889Z,12.70
2019-03-28T14:12:42.656Z,12.60
2019-03-28T14:15:12.259Z,12.50
2019-03-28T14:17:42.023Z,12.40
2019-03-28T14:20:11.899Z,12.20
2019-03-28T14:22:41.343Z,12.20
2019-03-28T14:25:11.255Z,12.10
2019-03-28T14:27:40.601Z,12.20
2019-03-28T14:30:11.478Z,12.30
2019-03-28T14:32:52.695Z,12.40
2019-03-28T14:35:12.699Z,12.40
2019-03-28T14:37:42.129Z,12.40
2019-03-28T14:40:11.877Z,12.50
2019-03-28T14:42:41.265Z,12.50
2019-03-28T14:45:11.116Z,12.40
2019-03-28T14:47:40.579Z,12.30
2019-03-28T14:50:10.840Z,12.30
2019-03-28T14:52:40.138Z,12.30
2019-03-28T14:55:09.691Z,12.40
2019-03-28T14:57:40.181Z,12.50
2019-03-28T15:00:50.960Z,12.60
2019-03-28T15:03:27.047Z,12.60
2019-03-28T15:05:55.806Z,12.60
2019-03-28T15:08:25.640Z,12.60
2019-03-28T15:10:55.066Z,12.60
2019-03-28T15:13:24.586Z,12.60
2019-03-28T15:15:54.121Z,12.60
2019-03-28T15:18:29.945Z,12.70
2019-03-28T15:21:02.323Z,12.80
2019-03-28T15:23:31.638Z,12.70
2019-03-28T15:26:01.650Z,12.80
2019-03-28T15:28:31.282Z,12.80
2019-03-28T15:31:00.884Z,12.80
2019-03-28T15:33:39.471Z,12.60
2019-03-28T15:36:01.746Z,12.60
2019-03-28T15:38:31.587Z,12.70
2019-03-28T15:41:01.201Z,12.70
2019-03-28T15:43:30.854Z,12.60
2019-03-28T15:46:00.507Z,12.60
2019-03-28T15:48:30.058Z,12.60
2019-03-28T15:51:05.727Z,12.60
2019-03-28T15:53:35.377Z,12.50
2019-03-28T15:56:04.943Z,12.50
2019-03-28T15:58:37.690Z,12.40
2019-03-28T16:01:07.827Z,12.40
2019-03-28T16:03:52.370Z,12.40
2019-03-28T16:06:11.186Z,12.40
2019-03-28T16:08:40.722Z,12.50
2019-03-28T16:11:10.171Z,12.50
2019-03-28T16:13:39.571Z,12.50
2019-03-28T16:16:09.115Z,12.40
2019-03-28T16:18:44.679Z,12.30
2019-03-28T16:21:21.059Z,12.30
2019-03-28T16:23:55.413Z,12.20
2019-03-28T16:29:29.213Z,12.10
2019-03-28T16:31:59.120Z,12.10
2019-03-28T16:34:31.376Z,12.10
2019-03-28T16:37:08.495Z,12.10
2019-03-28T16:39:44.493Z,12.10
2019-03-28T16:42:25.731Z,12.00
2019-03-28T16:44:57.641Z,12.00
2019-03-28T16:47:27.382Z,12.00
2019-03-28T16:49:57.177Z,12.10
2019-03-28T16:52:26.724Z,12.00
2019-03-28T16:54:56.018Z,12.00
2019-03-28T16:57:25.661Z,12.00
2019-03-28T16:59:55.274Z,12.00
2019-03-28T17:02:25.150Z,12.10
2019-03-28T17:04:54.531Z,12.00
2019-03-28T17:07:25.715Z,12.00
2019-03-28T17:09:56.228Z,11.90
2019-03-28T17:12:25.641Z,11.80
2019-03-28T17:14:55.870Z,11.70
2019-03-28T17:17:25.322Z,11.70
2019-03-28T17:19:54.741Z,11.70
2019-03-28T17:22:24.471Z,11.70
2019-03-28T17:24:53.866Z,11.70
2019-03-28T17:27:23.314Z,11.60
2019-03-28T17:29:52.890Z,11.50
2019-03-28T17:32:25.004Z,11.40
2019-03-28T17:34:56.151Z,11.30
2019-03-28T17:37:25.831Z,11.40
2019-03-28T17:39:56.585Z,11.40
2019-03-28T17:42:26.198Z,11.40
2019-03-28T17:44:55.572Z,11.40
2019-03-28T17:47:24.963Z,11.40
2019-03-28T17:49:54.594Z,11.40
2019-03-28T17:52:24.085Z,11.30
2019-03-28T17:54:56.053Z,11.40
2019-03-28T17:57:25.558Z,11.40
2019-03-28T17:59:54.926Z,11.50
2019-03-28T18:02:24.390Z,11.40
2019-03-28T18:04:54.005Z,11.40
2019-03-28T18:07:23.564Z,11.40
2019-03-28T18:09:53.072Z,11.40
2019-03-28T18:12:22.590Z,11.40
2019-03-28T18:14:53.243Z,11.40
2019-03-28T18:17:23.497Z,11.30
2019-03-28T18:19:53.240Z,11.30
2019-03-28T18:22:22.875Z,11.30
2019-03-28T18:24:53.179Z,11.30
2019-03-28T18:27:23.051Z,11.20
2019-03-28T18:30:13.278Z,11.30
2019-03-28T18:32:50.206Z,11.30
2019-03-28T18:35:30.233Z,11.30
2019-03-28T18:38:00.162Z,11.30
2019-03-28T18:40:37.003Z,11.20
2019-03-28T18:43:06.476Z,11.20
2019-03-28T18:45:35.872Z,11.20
2019-03-28T18:48:08.718Z,11.10
2019-03-28T18:50:36.327Z,11.00
2019-03-28T18:53:05.913Z,11.00
2019-03-28T18:55:35.353Z,11.00
2019-03-28T18:58:05.638Z,11.10
2019-03-28T19:00:35.394Z,11.10
2019-03-28T19:03:04.889Z,10.90
2019-03-28T19:05:34.253Z,10.90
2019-03-28T19:08:03.695Z,10.90
2019-03-28T19:10:33.135Z,11.00
2019-03-28T19:13:04.762Z,11.10
2019-03-28T19:15:33.649Z,11.10
2019-03-28T19:18:03.177Z,11.10
2019-03-28T19:20:33.457Z,11.00
2019-03-28T19:27:02.580Z,11.10
2019-03-28T19:29:32.065Z,11.10
2019-03-28T19:32:02.215Z,11.10
2019-03-28T19:34:55.837Z,11.00
2019-03-28T19:37:25.279Z,11.10
2019-03-28T19:39:56.058Z,11.00
2019-03-28T19:42:28.666Z,11.00
2019-03-28T19:45:04.291Z,11.00
2019-03-28T19:50:35.157Z,10.90
2019-03-28T19:53:05.984Z,10.90
2019-03-28T19:55:42.153Z,10.90
2019-03-28T19:58:15.412Z,10.90
2019-03-28T20:00:48.765Z,10.90
2019-03-28T20:03:18.520Z,10.90
2019-03-28T20:05:50.745Z,10.90
2019-03-28T20:08:20.424Z,10.80
2019-03-28T20:10:50.843Z,10.80
2019-03-28T20:13:20.521Z,10.80
2019-03-28T20:15:53.169Z,10.80
2019-03-28T20:18:25.595Z,10.80
2019-03-28T20:20:55.803Z,10.70
2019-03-28T20:23:27.776Z,10.80
2019-03-28T20:25:58.875Z,10.80
2019-03-28T20:28:48.231Z,10.80
2019-03-28T20:31:18.108Z,10.80
2019-03-28T20:33:54.674Z,10.80
2019-03-28T20:36:36.741Z,10.80
2019-03-28T20:39:03.857Z,10.70
2019-03-28T20:41:27.886Z,10.70
2019-03-28T20:44:03.086Z,10.70
2019-03-28T20:46:35.713Z,10.70
2019-03-28T20:49:05.532Z,10.80
2019-03-28T20:51:44.774Z,10.70
2019-03-28T20:54:16.435Z,10.70
2019-03-28T20:56:51.237Z,10.70
2019-03-28T20:59:51.355Z,10.70
2019-03-28T21:02:28.814Z,10.60
2019-03-28T21:04:59.074Z,10.60
2019-03-28T21:07:33.690Z,10.60
2019-03-28T21:10:04.981Z,10.70
2019-03-28T21:12:35.157Z,10.60
2019-03-28T21:15:05.452Z,10.60
2019-03-28T21:17:35.397Z,10.60
2019-03-28T21:20:05.437Z,10.60
2019-03-28T21:22:35.279Z,10.60
2019-03-28T21:25:05.385Z,10.60
2019-03-28T21:27:35.108Z,10.60
2019-03-28T21:30:05.349Z,10.60
2019-03-28T21:32:57.720Z,10.50
2019-03-28T21:35:39.415Z,10.50
2019-03-28T21:38:14.472Z,10.50
2019-03-28T21:40:51.798Z,10.50
2019-03-28T21:43:17.064Z,10.60
2019-03-28T21:45:49.031Z,10.50
2019-03-28T21:48:24.900Z,10.60
2019-03-28T21:50:56.441Z,10.70
2019-03-28T21:53:28.837Z,10.60
2019-03-28T21:55:59.133Z,10.50
2019-03-28T21:58:30.766Z,10.60
2019-03-28T22:01:01.144Z,10.60
2019-03-28T22:03:57.221Z,10.50
2019-03-28T22:06:27.165Z,10.50
2019-03-28T22:09:16.201Z,10.50
2019-03-28T22:11:47.302Z,10.60
2019-03-28T22:14:20.011Z,10.50
2019-03-28T22:16:50.170Z,10.50
2019-03-28T22:19:20.051Z,10.50
2019-03-28T22:21:49.970Z,10.50
2019-03-28T22:24:23.725Z,10.50
2019-03-28T22:26:59.923Z,10.60
2019-03-28T22:29:32.903Z,10.60
2019-03-28T22:32:24.637Z,10.60
2019-03-28T22:34:56.426Z,10.70
2019-03-28T22:38:20.960Z,10.70
2019-03-28T23:12:58.185Z,10.60
2019-03-28T23:26:44.050Z,10.80
